American Freedom — WDC3284 — position and weather

sailwx.info

Track history (hours):
 
Tides and Currents Weather Stations Pressure Air Temp Water Temp Dewpoint Dewpoint Depression Visibility Wind Speed Wind Dir Waves Ship Positions

American Freedom

Owner: LeBeouf Bros. Towing, L.L.C., Houma, LA. More information available from US FCC via Universal Licensing System and Coast Guard Vessel Documentation Center.

Last reported at 2018-Jun-24 23:48 UTC. Time now 2018-Jun-25 15:47 UTC.
Position N 29°51' W 091°55'.

Length 24 m.

Type: Tug. MMSI: 367005260.

Date/timePositionNaut miles runAvg speedWind from/ knotsBaromVisibWave heightAir tempDewpointWater temp
2018-Jun-24 23:48N 29°51' W 091°55'2 5.1
2018-Jun-24 23:30N 29°51' W 091°57'2 4.9
2018-Jun-24 23:01N 29°50' W 091°59'3 5.2
2018-Jun-24 22:30N 29°49' W 092°02'2 4.8
2018-Jun-24 22:00N 29°48' W 092°05'2 4.8
2018-Jun-24 21:30N 29°47' W 092°07'2 4.7
2018-Jun-24 21:00N 29°47' W 092°10'2 3.8
2018-Jun-24 20:30N 29°47' W 092°12'1 1.1
2018-Jun-24 20:00N 29°47' W 092°13'1 1.3
2018-Jun-24 19:30N 29°48' W 092°13'0 0.0
2018-Jun-24 19:00N 29°48' W 092°13'0 0.0
2018-Jun-24 18:30N 29°48' W 092°13'0 0.6
2018-Jun-24 18:00N 29°48' W 092°14'1 1.3
2018-Jun-24 17:30N 29°48' W 092°14'0 0.5
2018-Jun-24 17:00N 29°48' W 092°15'1 1.5
2018-Jun-24 16:30N 29°48' W 092°15'0 0.3
2018-Jun-24 16:00N 29°48' W 092°16'0 0.0
2018-Jun-24 15:30N 29°48' W 092°16'0 0.0
2018-Jun-24 15:00N 29°48' W 092°16'0 0.0
2018-Jun-24 14:30N 29°48' W 092°16'0 0.0
2018-Jun-24 14:00N 29°48' W 092°16'0 0.0
2018-Jun-24 13:30N 29°48' W 092°16'0 0.9
2018-Jun-24 13:00N 29°49' W 092°16'1 2.1
2018-Jun-24 12:31N 29°49' W 092°17'1 3.0
2018-Jun-24 12:01N 29°50' W 092°18'1 2.8
2018-Jun-24 11:30N 29°51' W 092°20'39 3.2
2018-Jun-23 23:07N 29°56' W 093°05'2 3.8
2018-Jun-23 22:43N 29°56' W 093°06'1 4.3
2018-Jun-23 22:30N 29°56' W 093°08'2 4.0
2018-Jun-23 22:00N 29°56' W 093°10'2 3.4
2018-Jun-23 21:30N 29°58' W 093°11'2 3.4
2018-Jun-23 21:01N 29°59' W 093°12'2 3.4
2018-Jun-23 20:30N 30°00' W 093°14'2 3.5
2018-Jun-23 20:00N 30°02' W 093°15'2 3.2
2018-Jun-23 19:30N 30°03' W 093°16'2 3.1
2018-Jun-23 19:00N 30°04' W 093°16'1 2.5
2018-Jun-23 18:30N 30°05' W 093°18'1 1.2
2018-Jun-23 18:00N 30°06' W 093°18'0 0.9
2018-Jun-23 17:30N 30°06' W 093°18'0 0.1
2018-Jun-23 17:00N 30°06' W 093°18'0 0.0
2018-Jun-23 16:30N 30°06' W 093°18'0 0.0
2018-Jun-23 16:01N 30°06' W 093°18'0 0.0
2018-Jun-23 15:30N 30°06' W 093°18'0 0.0
2018-Jun-23 15:00N 30°06' W 093°18'0 0.0
2018-Jun-23 14:30N 30°06' W 093°18'0 0.0
2018-Jun-23 14:00N 30°06' W 093°18'0 0.0
2018-Jun-23 13:30N 30°06' W 093°18'0 0.2
2018-Jun-23 13:00N 30°06' W 093°18'1 2.5
2018-Jun-23 12:30N 30°05' W 093°20'1 2.5
2018-Jun-23 12:00N 30°04' W 093°20'1 2.8
2018-Jun-23 11:30N 30°04' W 093°22'1 2.9
2018-Jun-23 11:00N 30°04' W 093°23'1 1.1
2018-Jun-23 10:30N 30°04' W 093°24'0 0.0
2018-Jun-23 10:00N 30°04' W 093°24'0 0.0
2018-Jun-23 09:30N 30°04' W 093°24'0 0.0
2018-Jun-23 09:00N 30°04' W 093°24'0 0.0
2018-Jun-23 08:31N 30°04' W 093°24'0 0.0
2018-Jun-23 08:00N 30°04' W 093°24'0 0.0
2018-Jun-23 07:30N 30°04' W 093°24'0 0.0
2018-Jun-23 07:00N 30°04' W 093°24'0 0.0
2018-Jun-23 06:30N 30°04' W 093°24'0 0.0
2018-Jun-23 06:00N 30°04' W 093°24'0 0.0
2018-Jun-23 05:30N 30°04' W 093°24'0 0.0
2018-Jun-23 05:00N 30°04' W 093°24'0 0.0
2018-Jun-23 04:30N 30°04' W 093°24'0 0.0
2018-Jun-23 04:00N 30°04' W 093°24'0 0.1
2018-Jun-23 03:30N 30°04' W 093°24'0 0.1
2018-Jun-23 03:00N 30°04' W 093°24'0 0.0
2018-Jun-23 02:30N 30°04' W 093°24'0 0.0
2018-Jun-23 02:00N 30°04' W 093°24'0 0.0
2018-Jun-23 01:29N 30°04' W 093°24'0 0.0
2018-Jun-23 00:59N 30°04' W 093°24'0 0.0
2018-Jun-23 00:30N 30°04' W 093°24'0 0.1
2018-Jun-23 00:00N 30°04' W 093°24'1 1.4
2018-Jun-22 23:30N 30°04' W 093°25'3 5.2
2018-Jun-22 23:00N 30°04' W 093°28'3 5.4
2018-Jun-22 22:31N 30°04' W 093°31'3 5.4
2018-Jun-22 21:59N 30°04' W 093°34'4 5.5
2018-Jun-22 21:19N 30°04' W 093°39'2 5.9
2018-Jun-22 21:01N 30°04' W 093°41'3 5.4
2018-Jun-22 20:31N 30°03' W 093°44'3 5.6
2018-Jun-22 20:00N 30°01' W 093°46'3 5.7
2018-Jun-22 19:30N 29°59' W 093°49'3 5.0
2018-Jun-22 19:01N 29°58' W 093°51'3 6.7
2018-Jun-22 18:31N 29°55' W 093°53'3 6.8
2018-Jun-22 18:01N 29°53' W 093°56'3 6.8
2018-Jun-22 17:30N 29°50' W 093°57'1 2.3
2018-Jun-22 17:01N 29°49' W 093°59'2 4.1
2018-Jun-22 16:31N 29°48' W 094°00'3 5.2
2018-Jun-22 16:00N 29°46' W 094°03'3 5.1
2018-Jun-22 15:30N 29°44' W 094°05'3 5.2
2018-Jun-22 15:01N 29°43' W 094°07'3 5.1
2018-Jun-22 14:31N 29°41' W 094°10'2 4.9
2018-Jun-22 14:00N 29°41' W 094°12'2 4.7
2018-Jun-22 13:30N 29°40' W 094°15'2 4.7
2018-Jun-22 13:00N 29°38' W 094°17'2 4.5
2018-Jun-22 12:30N 29°37' W 094°20'2 4.4
2018-Jun-22 12:00N 29°36' W 094°22'2 3.9
2018-Jun-22 11:31N 29°36' W 094°24'7 2.8
2018-Jun-22 08:54N 29°31' W 094°30'2 5.5
2018-Jun-22 08:29N 29°30' W 094°33'4 5.6
2018-Jun-22 07:48N 29°29' W 094°37'2 5.6
2018-Jun-22 07:23N 29°28' W 094°39'3 5.2
2018-Jun-22 06:53N 29°27' W 094°42'3 5.5
2018-Jun-22 06:24N 29°25' W 094°44'2 4.7
2018-Jun-22 05:59N 29°23' W 094°46'2 4.8
2018-Jun-22 05:30N 29°22' W 094°48'4 6.3
2018-Jun-22 04:52N 29°26' W 094°50'3 7.5
2018-Jun-22 04:30N 29°28' W 094°51'4 7.4
2018-Jun-22 04:00N 29°31' W 094°53'4 7.3
2018-Jun-22 03:30N 29°34' W 094°56'4 7.1
2018-Jun-22 03:00N 29°37' W 094°58'4 7.4
2018-Jun-22 02:30N 29°41' W 094°59'4 6.5
2018-Jun-22 01:51N 29°44' W 095°03'3 0.1
2018-Jun-20 04:40N 29°42' W 094°60'3 6.7
2018-Jun-20 04:12N 29°39' W 094°58'2 7.4
2018-Jun-20 04:00N 29°38' W 094°58'14 7.2
2018-Jun-20 01:59N 29°25' W 094°49'3 6.0
2018-Jun-20 01:29N 29°22' W 094°48'2 5.0
2018-Jun-20 01:00N 29°24' W 094°45'0 0.0
2018-Jun-20 00:29N 29°24' W 094°45'5 2.5
2018-Jun-19 22:17N 29°27' W 094°41'3 6.8
2018-Jun-19 21:47N 29°29' W 094°37'2 6.8
2018-Jun-19 21:30N 29°29' W 094°35'3 6.8
2018-Jun-19 21:00N 29°31' W 094°31'5 6.5
2018-Jun-19 20:18N 29°34' W 094°27'2 6.5
2018-Jun-19 19:55N 29°35' W 094°25'2 4.5
2018-Jun-19 19:30N 29°36' W 094°23'2 3.2
2018-Jun-19 19:00N 29°37' W 094°22'2 4.7
2018-Jun-19 18:30N 29°38' W 094°19'4 7.6
2018-Jun-19 18:00N 29°39' W 094°15'4 7.5
2018-Jun-19 17:30N 29°41' W 094°11'4 7.4
2018-Jun-19 17:00N 29°43' W 094°08'4 8.0
2018-Jun-19 16:30N 29°45' W 094°04'4 7.4
2018-Jun-19 16:00N 29°48' W 094°01'3 6.3
2018-Jun-19 15:30N 29°49' W 093°58'2 4.1
2018-Jun-19 15:00N 29°51' W 093°57'2 4.8
2018-Jun-19 14:30N 29°53' W 093°55'3 5.2
2018-Jun-19 14:00N 29°55' W 093°53'3 5.5
2018-Jun-19 13:30N 29°58' W 093°51'1 2.9
2018-Jun-19 13:00N 29°59' W 093°50'3 5.2
2018-Jun-19 12:30N 29°59' W 093°47'4 7.9
2018-Jun-19 12:00N 30°02' W 093°44'3 6.9
2018-Jun-19 11:30N 30°04' W 093°41'3 6.7
2018-Jun-19 10:59N 30°04' W 093°37'3 6.6
2018-Jun-19 10:30N 30°04' W 093°33'3 6.6
2018-Jun-19 10:00N 30°04' W 093°29'3 5.4
2018-Jun-19 09:30N 30°04' W 093°26'2 3.2
2018-Jun-19 09:00N 30°04' W 093°24'2 3.2
2018-Jun-19 08:30N 30°04' W 093°22'1 2.6
2018-Jun-19 08:00N 30°04' W 093°21'1 2.6
2018-Jun-19 07:30N 30°05' W 093°20'2 3.4
2018-Jun-19 07:00N 30°06' W 093°18'1 2.0
2018-Jun-19 06:30N 30°05' W 093°17'0 0.3
2018-Jun-19 06:00N 30°05' W 093°17'1 2.5
2018-Jun-19 05:30N 30°04' W 093°16'1 1.1
2018-Jun-19 05:00N 30°04' W 093°16'1 1.1
2018-Jun-19 04:30N 30°03' W 093°16'1 2.5
2018-Jun-19 04:00N 30°02' W 093°15'0 0.6
2018-Jun-19 03:29N 30°02' W 093°15'0 0.0
2018-Jun-19 02:59N 30°02' W 093°15'0 0.0
2018-Jun-19 02:30N 30°02' W 093°15'0 0.0
2018-Jun-19 02:00N 30°02' W 093°15'0 0.0
2018-Jun-19 01:30N 30°02' W 093°15'0 0.0
2018-Jun-19 01:00N 30°02' W 093°15'0 0.0
2018-Jun-19 00:29N 30°02' W 093°15'0 0.0
2018-Jun-19 00:00N 30°02' W 093°15'0 0.0
2018-Jun-18 23:30N 30°02' W 093°15'0 0.0
2018-Jun-18 23:00N 30°02' W 093°15'0 0.0
2018-Jun-18 22:30N 30°02' W 093°15'0 0.2
2018-Jun-18 22:00N 30°02' W 093°15'0 0.0
2018-Jun-18 21:30N 30°02' W 093°15'0 0.0
2018-Jun-18 21:00N 30°02' W 093°15'0 0.0
2018-Jun-18 20:30N 30°02' W 093°15'0 0.0
2018-Jun-18 20:00N 30°02' W 093°15'0 0.0
2018-Jun-18 19:30N 30°02' W 093°15'0 0.0
2018-Jun-18 19:00N 30°02' W 093°15'0 0.0
2018-Jun-18 18:30N 30°02' W 093°15'0 0.0
2018-Jun-18 18:00N 30°02' W 093°15'0 0.0
2018-Jun-18 17:30N 30°02' W 093°15'0 0.0
2018-Jun-18 17:00N 30°02' W 093°15'0 0.0
2018-Jun-18 16:28N 30°02' W 093°15'0 0.0
2018-Jun-18 15:59N 30°02' W 093°15'2 3.2
2018-Jun-18 15:30N 30°01' W 093°14'3 5.3
2018-Jun-18 15:00N 29°59' W 093°12'4 6.2
2018-Jun-18 14:26N 29°56' W 093°09'40 3.9
2018-Jun-18 04:03N 29°53' W 092°23'0 6.6
2018-Jun-18 04:00N 29°52' W 092°23'3 5.7
2018-Jun-18 03:28N 29°50' W 092°20'3 5.8
2018-Jun-18 03:00N 29°49' W 092°17'3 5.1
2018-Jun-18 02:30N 29°48' W 092°15'2 4.1
2018-Jun-18 02:00N 29°47' W 092°12'0 0.5
2018-Jun-18 01:30N 29°47' W 092°12'1 2.2
2018-Jun-18 01:00N 29°47' W 092°11'0 0.0
2018-Jun-18 00:30N 29°47' W 092°11'0 0.0
2018-Jun-18 00:00N 29°47' W 092°11'0 0.0
2018-Jun-17 23:30N 29°47' W 092°11'0 0.0
2018-Jun-17 23:00N 29°47' W 092°11'0 0.0
2018-Jun-17 22:29N 29°47' W 092°11'0 0.0
2018-Jun-17 22:00N 29°47' W 092°11'1 1.8
2018-Jun-17 21:30N 29°47' W 092°10'0 0.1
2018-Jun-17 21:00N 29°47' W 092°10'0 0.0
2018-Jun-17 20:30N 29°47' W 092°10'0 0.0
2018-Jun-17 20:00N 29°47' W 092°10'0 0.0
2018-Jun-17 19:30N 29°47' W 092°10'0 0.0
2018-Jun-17 19:00N 29°47' W 092°10'0 0.0
2018-Jun-17 18:30N 29°47' W 092°10'0 0.0
2018-Jun-17 18:00N 29°47' W 092°10'0 0.0
2018-Jun-17 17:30N 29°47' W 092°10'2 4.0
2018-Jun-17 17:00N 29°47' W 092°08'1 2.9
2018-Jun-17 16:30N 29°48' W 092°06'0 0.1
2018-Jun-17 16:00N 29°48' W 092°06'0 0.0
2018-Jun-17 15:30N 29°48' W 092°06'2 3.2
2018-Jun-17 15:00N 29°48' W 092°05'3 6.8
2018-Jun-17 14:30N 29°49' W 092°01'  
Track history (hours):
 
Tides and Currents Weather Stations Pressure Air Temp Water Temp Dewpoint Dewpoint Depression Visibility Wind Speed Wind Dir Waves Ship Positions

American Freedom

Owner: LeBeouf Bros. Towing, L.L.C., Houma, LA. More information available from US FCC via Universal Licensing System and Coast Guard Vessel Documentation Center.

Last reported at 2018-Jun-24 23:48 UTC. Time now 2018-Jun-25 15:47 UTC.
Position N 29°51' W 091°55'.

Length 24 m.

Type: Tug. MMSI: 367005260.

Date/timePositionNaut miles runAvg speedWind from/ knotsBaromVisibWave heightAir tempDewpointWater temp
2018-Jun-24 23:48N 29°51' W 091°55'2 5.1
2018-Jun-24 23:30N 29°51' W 091°57'2 4.9
2018-Jun-24 23:01N 29°50' W 091°59'3 5.2
2018-Jun-24 22:30N 29°49' W 092°02'2 4.8
2018-Jun-24 22:00N 29°48' W 092°05'2 4.8
2018-Jun-24 21:30N 29°47' W 092°07'2 4.7
2018-Jun-24 21:00N 29°47' W 092°10'2 3.8
2018-Jun-24 20:30N 29°47' W 092°12'1 1.1
2018-Jun-24 20:00N 29°47' W 092°13'1 1.3
2018-Jun-24 19:30N 29°48' W 092°13'0 0.0
2018-Jun-24 19:00N 29°48' W 092°13'0 0.0
2018-Jun-24 18:30N 29°48' W 092°13'0 0.6
2018-Jun-24 18:00N 29°48' W 092°14'1 1.3
2018-Jun-24 17:30N 29°48' W 092°14'0 0.5
2018-Jun-24 17:00N 29°48' W 092°15'1 1.5
2018-Jun-24 16:30N 29°48' W 092°15'0 0.3
2018-Jun-24 16:00N 29°48' W 092°16'0 0.0
2018-Jun-24 15:30N 29°48' W 092°16'0 0.0
2018-Jun-24 15:00N 29°48' W 092°16'0 0.0
2018-Jun-24 14:30N 29°48' W 092°16'0 0.0
2018-Jun-24 14:00N 29°48' W 092°16'0 0.0
2018-Jun-24 13:30N 29°48' W 092°16'0 0.9
2018-Jun-24 13:00N 29°49' W 092°16'1 2.1
2018-Jun-24 12:31N 29°49' W 092°17'1 3.0
2018-Jun-24 12:01N 29°50' W 092°18'1 2.8
2018-Jun-24 11:30N 29°51' W 092°20'39 3.2
2018-Jun-23 23:07N 29°56' W 093°05'2 3.8
2018-Jun-23 22:43N 29°56' W 093°06'1 4.3
2018-Jun-23 22:30N 29°56' W 093°08'2 4.0
2018-Jun-23 22:00N 29°56' W 093°10'2 3.4
2018-Jun-23 21:30N 29°58' W 093°11'2 3.4
2018-Jun-23 21:01N 29°59' W 093°12'2 3.4
2018-Jun-23 20:30N 30°00' W 093°14'2 3.5
2018-Jun-23 20:00N 30°02' W 093°15'2 3.2
2018-Jun-23 19:30N 30°03' W 093°16'2 3.1
2018-Jun-23 19:00N 30°04' W 093°16'1 2.5
2018-Jun-23 18:30N 30°05' W 093°18'1 1.2
2018-Jun-23 18:00N 30°06' W 093°18'0 0.9
2018-Jun-23 17:30N 30°06' W 093°18'0 0.1
2018-Jun-23 17:00N 30°06' W 093°18'0 0.0
2018-Jun-23 16:30N 30°06' W 093°18'0 0.0
2018-Jun-23 16:01N 30°06' W 093°18'0 0.0
2018-Jun-23 15:30N 30°06' W 093°18'0 0.0
2018-Jun-23 15:00N 30°06' W 093°18'0 0.0
2018-Jun-23 14:30N 30°06' W 093°18'0 0.0
2018-Jun-23 14:00N 30°06' W 093°18'0 0.0
2018-Jun-23 13:30N 30°06' W 093°18'0 0.2
2018-Jun-23 13:00N 30°06' W 093°18'1 2.5
2018-Jun-23 12:30N 30°05' W 093°20'1 2.5
2018-Jun-23 12:00N 30°04' W 093°20'1 2.8
2018-Jun-23 11:30N 30°04' W 093°22'1 2.9
2018-Jun-23 11:00N 30°04' W 093°23'1 1.1
2018-Jun-23 10:30N 30°04' W 093°24'0 0.0
2018-Jun-23 10:00N 30°04' W 093°24'0 0.0
2018-Jun-23 09:30N 30°04' W 093°24'0 0.0
2018-Jun-23 09:00N 30°04' W 093°24'0 0.0
2018-Jun-23 08:31N 30°04' W 093°24'0 0.0
2018-Jun-23 08:00N 30°04' W 093°24'0 0.0
2018-Jun-23 07:30N 30°04' W 093°24'0 0.0
2018-Jun-23 07:00N 30°04' W 093°24'0 0.0
2018-Jun-23 06:30N 30°04' W 093°24'0 0.0
2018-Jun-23 06:00N 30°04' W 093°24'0 0.0
2018-Jun-23 05:30N 30°04' W 093°24'0 0.0
2018-Jun-23 05:00N 30°04' W 093°24'0 0.0
2018-Jun-23 04:30N 30°04' W 093°24'0 0.0
2018-Jun-23 04:00N 30°04' W 093°24'0 0.1
2018-Jun-23 03:30N 30°04' W 093°24'0 0.1
2018-Jun-23 03:00N 30°04' W 093°24'0 0.0
2018-Jun-23 02:30N 30°04' W 093°24'0 0.0
2018-Jun-23 02:00N 30°04' W 093°24'0 0.0
2018-Jun-23 01:29N 30°04' W 093°24'0 0.0
2018-Jun-23 00:59N 30°04' W 093°24'0 0.0
2018-Jun-23 00:30N 30°04' W 093°24'0 0.1
2018-Jun-23 00:00N 30°04' W 093°24'1 1.4
2018-Jun-22 23:30N 30°04' W 093°25'3 5.2
2018-Jun-22 23:00N 30°04' W 093°28'3 5.4
2018-Jun-22 22:31N 30°04' W 093°31'3 5.4
2018-Jun-22 21:59N 30°04' W 093°34'4 5.5
2018-Jun-22 21:19N 30°04' W 093°39'2 5.9
2018-Jun-22 21:01N 30°04' W 093°41'3 5.4
2018-Jun-22 20:31N 30°03' W 093°44'3 5.6
2018-Jun-22 20:00N 30°01' W 093°46'3 5.7
2018-Jun-22 19:30N 29°59' W 093°49'3 5.0
2018-Jun-22 19:01N 29°58' W 093°51'3 6.7
2018-Jun-22 18:31N 29°55' W 093°53'3 6.8
2018-Jun-22 18:01N 29°53' W 093°56'3 6.8
2018-Jun-22 17:30N 29°50' W 093°57'1 2.3
2018-Jun-22 17:01N 29°49' W 093°59'2 4.1
2018-Jun-22 16:31N 29°48' W 094°00'3 5.2
2018-Jun-22 16:00N 29°46' W 094°03'3 5.1
2018-Jun-22 15:30N 29°44' W 094°05'3 5.2
2018-Jun-22 15:01N 29°43' W 094°07'3 5.1
2018-Jun-22 14:31N 29°41' W 094°10'2 4.9
2018-Jun-22 14:00N 29°41' W 094°12'2 4.7
2018-Jun-22 13:30N 29°40' W 094°15'2 4.7
2018-Jun-22 13:00N 29°38' W 094°17'2 4.5
2018-Jun-22 12:30N 29°37' W 094°20'2 4.4
2018-Jun-22 12:00N 29°36' W 094°22'2 3.9
2018-Jun-22 11:31N 29°36' W 094°24'7 2.8
2018-Jun-22 08:54N 29°31' W 094°30'2 5.5
2018-Jun-22 08:29N 29°30' W 094°33'4 5.6
2018-Jun-22 07:48N 29°29' W 094°37'2 5.6
2018-Jun-22 07:23N 29°28' W 094°39'3 5.2
2018-Jun-22 06:53N 29°27' W 094°42'3 5.5
2018-Jun-22 06:24N 29°25' W 094°44'2 4.7
2018-Jun-22 05:59N 29°23' W 094°46'2 4.8
2018-Jun-22 05:30N 29°22' W 094°48'4 6.3
2018-Jun-22 04:52N 29°26' W 094°50'3 7.5
2018-Jun-22 04:30N 29°28' W 094°51'4 7.4
2018-Jun-22 04:00N 29°31' W 094°53'4 7.3
2018-Jun-22 03:30N 29°34' W 094°56'4 7.1
2018-Jun-22 03:00N 29°37' W 094°58'4 7.4
2018-Jun-22 02:30N 29°41' W 094°59'4 6.5
2018-Jun-22 01:51N 29°44' W 095°03'3 0.1
2018-Jun-20 04:40N 29°42' W 094°60'3 6.7
2018-Jun-20 04:12N 29°39' W 094°58'2 7.4
2018-Jun-20 04:00N 29°38' W 094°58'14 7.2
2018-Jun-20 01:59N 29°25' W 094°49'3 6.0
2018-Jun-20 01:29N 29°22' W 094°48'2 5.0
2018-Jun-20 01:00N 29°24' W 094°45'0 0.0
2018-Jun-20 00:29N 29°24' W 094°45'5 2.5
2018-Jun-19 22:17N 29°27' W 094°41'3 6.8
2018-Jun-19 21:47N 29°29' W 094°37'2 6.8
2018-Jun-19 21:30N 29°29' W 094°35'3 6.8
2018-Jun-19 21:00N 29°31' W 094°31'5 6.5
2018-Jun-19 20:18N 29°34' W 094°27'2 6.5
2018-Jun-19 19:55N 29°35' W 094°25'2 4.5
2018-Jun-19 19:30N 29°36' W 094°23'2 3.2
2018-Jun-19 19:00N 29°37' W 094°22'2 4.7
2018-Jun-19 18:30N 29°38' W 094°19'4 7.6
2018-Jun-19 18:00N 29°39' W 094°15'4 7.5
2018-Jun-19 17:30N 29°41' W 094°11'4 7.4
2018-Jun-19 17:00N 29°43' W 094°08'4 8.0
2018-Jun-19 16:30N 29°45' W 094°04'4 7.4
2018-Jun-19 16:00N 29°48' W 094°01'3 6.3
2018-Jun-19 15:30N 29°49' W 093°58'2 4.1
2018-Jun-19 15:00N 29°51' W 093°57'2 4.8
2018-Jun-19 14:30N 29°53' W 093°55'3 5.2
2018-Jun-19 14:00N 29°55' W 093°53'3 5.5
2018-Jun-19 13:30N 29°58' W 093°51'1 2.9
2018-Jun-19 13:00N 29°59' W 093°50'3 5.2
2018-Jun-19 12:30N 29°59' W 093°47'4 7.9
2018-Jun-19 12:00N 30°02' W 093°44'3 6.9
2018-Jun-19 11:30N 30°04' W 093°41'3 6.7
2018-Jun-19 10:59N 30°04' W 093°37'3 6.6
2018-Jun-19 10:30N 30°04' W 093°33'3 6.6
2018-Jun-19 10:00N 30°04' W 093°29'3 5.4
2018-Jun-19 09:30N 30°04' W 093°26'2 3.2
2018-Jun-19 09:00N 30°04' W 093°24'2 3.2
2018-Jun-19 08:30N 30°04' W 093°22'1 2.6
2018-Jun-19 08:00N 30°04' W 093°21'1 2.6
2018-Jun-19 07:30N 30°05' W 093°20'2 3.4
2018-Jun-19 07:00N 30°06' W 093°18'1 2.0
2018-Jun-19 06:30N 30°05' W 093°17'0 0.3
2018-Jun-19 06:00N 30°05' W 093°17'1 2.5
2018-Jun-19 05:30N 30°04' W 093°16'1 1.1
2018-Jun-19 05:00N 30°04' W 093°16'1 1.1
2018-Jun-19 04:30N 30°03' W 093°16'1 2.5
2018-Jun-19 04:00N 30°02' W 093°15'0 0.6
2018-Jun-19 03:29N 30°02' W 093°15'0 0.0
2018-Jun-19 02:59N 30°02' W 093°15'0 0.0
2018-Jun-19 02:30N 30°02' W 093°15'0 0.0
2018-Jun-19 02:00N 30°02' W 093°15'0 0.0
2018-Jun-19 01:30N 30°02' W 093°15'0 0.0
2018-Jun-19 01:00N 30°02' W 093°15'0 0.0
2018-Jun-19 00:29N 30°02' W 093°15'0 0.0
2018-Jun-19 00:00N 30°02' W 093°15'0 0.0
2018-Jun-18 23:30N 30°02' W 093°15'0 0.0
2018-Jun-18 23:00N 30°02' W 093°15'0 0.0
2018-Jun-18 22:30N 30°02' W 093°15'0 0.2
2018-Jun-18 22:00N 30°02' W 093°15'0 0.0
2018-Jun-18 21:30N 30°02' W 093°15'0 0.0
2018-Jun-18 21:00N 30°02' W 093°15'0 0.0
2018-Jun-18 20:30N 30°02' W 093°15'0 0.0
2018-Jun-18 20:00N 30°02' W 093°15'0 0.0
2018-Jun-18 19:30N 30°02' W 093°15'0 0.0
2018-Jun-18 19:00N 30°02' W 093°15'0 0.0
2018-Jun-18 18:30N 30°02' W 093°15'0 0.0
2018-Jun-18 18:00N 30°02' W 093°15'0 0.0
2018-Jun-18 17:30N 30°02' W 093°15'0 0.0
2018-Jun-18 17:00N 30°02' W 093°15'0 0.0
2018-Jun-18 16:28N 30°02' W 093°15'0 0.0
2018-Jun-18 15:59N 30°02' W 093°15'2 3.2
2018-Jun-18 15:30N 30°01' W 093°14'3 5.3
2018-Jun-18 15:00N 29°59' W 093°12'4 6.2
2018-Jun-18 14:26N 29°56' W 093°09'40 3.9
2018-Jun-18 04:03N 29°53' W 092°23'0 6.6
2018-Jun-18 04:00N 29°52' W 092°23'3 5.7
2018-Jun-18 03:28N 29°50' W 092°20'3 5.8
2018-Jun-18 03:00N 29°49' W 092°17'3 5.1
2018-Jun-18 02:30N 29°48' W 092°15'2 4.1
2018-Jun-18 02:00N 29°47' W 092°12'0 0.5
2018-Jun-18 01:30N 29°47' W 092°12'1 2.2
2018-Jun-18 01:00N 29°47' W 092°11'0 0.0
2018-Jun-18 00:30N 29°47' W 092°11'0 0.0
2018-Jun-18 00:00N 29°47' W 092°11'0 0.0
2018-Jun-17 23:30N 29°47' W 092°11'0 0.0
2018-Jun-17 23:00N 29°47' W 092°11'0 0.0
2018-Jun-17 22:29N 29°47' W 092°11'0 0.0
2018-Jun-17 22:00N 29°47' W 092°11'1 1.8
2018-Jun-17 21:30N 29°47' W 092°10'0 0.1
2018-Jun-17 21:00N 29°47' W 092°10'0 0.0
2018-Jun-17 20:30N 29°47' W 092°10'0 0.0
2018-Jun-17 20:00N 29°47' W 092°10'0 0.0
2018-Jun-17 19:30N 29°47' W 092°10'0 0.0
2018-Jun-17 19:00N 29°47' W 092°10'0 0.0
2018-Jun-17 18:30N 29°47' W 092°10'0 0.0
2018-Jun-17 18:00N 29°47' W 092°10'0 0.0
2018-Jun-17 17:30N 29°47' W 092°10'2 4.0
2018-Jun-17 17:00N 29°47' W 092°08'1 2.9
2018-Jun-17 16:30N 29°48' W 092°06'0 0.1
2018-Jun-17 16:00N 29°48' W 092°06'0 0.0
2018-Jun-17 15:30N 29°48' W 092°06'2 3.2
2018-Jun-17 15:00N 29°48' W 092°05'3 6.8
2018-Jun-17 14:30N 29°49' W 092°01'  

Dump ship's entire track history